Montreal Mirabel, Quebec

8:53 AM EDT on July 27, 2016 (GMT -0400)
Montreal International (Mirabel) | | Change Station

Elev 269 ft 45.68 °N, 74.04 °W | Updated 53 minutes ago

Mostly Cloudy
Mostly Cloudy
66 °F
Feels Like 66 °F
N
8
Wind Variable Wind from SW

Today
High -- | Low -- °F
--% Chance of Precip.
Yesterday
High -- | Low -- °F
Precip. -- in
Pressure 29.91 in
Visibility 25.0 miles
Clouds Few 1500 ft
Mostly Cloudy 23000 ft
Dew Point 64 °F
Humidity 94%
Rainfall 0.00 in
Snow Depth Not available.
5:34 AM 8:30 PM
Last Quarter, 43% visible
METAR CYMX 271200Z 23007KT 210V300 25SM FEW015 BKN230 19/18 A2990 RMK CF1CI5 CF TR SLP126 DENSITY ALT 800FT
Pressure 29.91 in
Visibility 25.0 miles
Clouds Few 1500 ft
Mostly Cloudy 23000 ft
Dew Point 64 °F
Humidity 94%
Rainfall 0.00 in
Snow Depth Not available.
5:34 AM 8:30 PM
Last Quarter, 43% visible
METAR CYMX 271200Z 23007KT 210V300 25SM FEW015 BKN230 19/18 A2990 RMK CF1CI5 CF TR SLP126 DENSITY ALT 800FT

10-Day Weather Forecast

Almanac

Astronomy

Jul. 27, 2016 Rise Set
Actual Time
Civil Twilight
Nautical Twilight
Astronomical Twilight
Moon
Length of Visible Light
Length of Day
Tomorrow will be .
, % of the Moon is Illuminated

Today's Extremes

Country Highs Country Lows

Community

WunderPhotos

Upload Photos

1,927,841 photos uploaded!

WunderBlog® & News

Nearby

Air Quality

  Air Quality AQ Index Pollutant
Not available.

Snow Depth

Station Depth Elevation

Earthquake Activity

City Distance Mag. Time & Date
Minimum magnitude displayed is 2.5.

Coastal Water Temperatures

Place Temperature

Stations

Nearby Weather Stations

Station Location Temp. Windchill Dew Point Humidity Wind Precip. Elev Updated Type
                   

Watches & Warnings

There are currently no watches in effect.